Time;durP1;ratioP1;P1;durP2;ratioP2;P2;SDS_P1;SDS_P2;PMS_P1;PMS_P2;Temp;Humidity;BMP_temperature;BMP_pressure;BME280_temperature;BME280_humidity;BME280_pressure;Samples;Min_cycle;Max_cycle;Signal;HPM_P1;HPM_P2
2022/03/16 00:02:26;;;;;;;15.63;9.77;;;5.10;99.90;;;;;;5067913;27;21101;-78
2022/03/16 00:04:54;;;;;;;16.85;10.73;;;5.20;99.90;;;;;;5083233;27;20047;-78
2022/03/16 00:07:22;;;;;;;15.47;10.63;;;5.20;99.90;;;;;;5086018;27;20024;-75
2022/03/16 00:09:49;;;;;;;17.03;11.00;;;5.20;99.90;;;;;;5046100;27;20047;-75
2022/03/16 00:12:16;;;;;;;14.75;9.75;;;5.20;99.90;;;;;;5082407;27;20040;-75
2022/03/16 00:14:43;;;;;;;14.27;10.32;;;5.10;99.90;;;;;;5084507;27;20562;-75
2022/03/16 00:17:10;;;;;;;14.93;10.37;;;5.00;99.90;;;;;;5083226;28;20023;-78
2022/03/16 00:19:36;;;;;;;16.80;11.27;;;5.00;99.90;;;;;;5100365;27;20024;-78
2022/03/16 00:22:04;;;;;;;14.40;10.03;;;5.00;99.90;;;;;;5102581;27;20370;-78
2022/03/16 00:24:30;;;;;;;16.50;11.50;;;4.90;99.90;;;;;;5103393;27;20356;-78
2022/03/16 00:26:57;;;;;;;16.93;11.53;;;4.90;99.90;;;;;;5067015;27;20458;-78
2022/03/16 00:29:24;;;;;;;19.97;11.73;;;4.80;99.90;;;;;;5098522;27;20024;-78
2022/03/16 00:31:52;;;;;;;20.63;12.67;;;4.90;99.90;;;;;;5082363;28;21322;-78
2022/03/16 00:34:19;;;;;;;19.83;12.87;;;4.80;99.90;;;;;;5081722;27;20019;-79
2022/03/16 00:36:47;;;;;;;19.17;12.93;;;4.80;99.90;;;;;;5051770;27;20023;-78
2022/03/16 00:39:13;;;;;;;20.48;12.82;;;4.80;99.90;;;;;;5082688;28;20068;-75
2022/03/16 00:41:40;;;;;;;19.52;12.23;;;4.80;99.90;;;;;;5079314;27;21148;-75
2022/03/16 00:44:07;;;;;;;24.27;14.53;;;4.70;99.90;;;;;;5081163;27;20070;-76
2022/03/16 00:46:34;;;;;;;20.30;13.15;;;4.70;99.90;;;;;;5087099;27;20023;-75
2022/03/16 00:49:02;;;;;;;21.97;13.00;;;4.80;99.90;;;;;;5069024;27;20016;-75
2022/03/16 00:51:28;;;;;;;19.85;13.57;;;4.70;99.90;;;;;;5081137;27;20044;-75
2022/03/16 00:53:55;;;;;;;21.33;13.95;;;4.70;99.90;;;;;;5083113;27;20119;-75
2022/03/16 00:56:21;;;;;;;20.17;13.80;;;4.80;99.90;;;;;;5105106;27;20026;-78
2022/03/16 00:58:47;;;;;;;19.60;14.07;;;4.70;99.90;;;;;;5067947;27;20023;-79
2022/03/16 01:01:14;;;;;;;21.83;13.67;;;4.70;99.90;;;;;;5047883;27;20035;-76
2022/03/16 01:03:41;;;;;;;20.70;14.33;;;4.70;99.90;;;;;;5099564;27;20031;-76
2022/03/16 01:06:15;;;;;;;24.70;14.57;;;4.70;99.90;;;;;;5065986;28;20398;-76
2022/03/16 01:08:43;;;;;;;23.50;14.27;;;4.70;99.90;;;;;;5098698;27;20391;-75
2022/03/16 01:11:13;;;;;;;21.40;14.20;;;4.70;99.90;;;;;;5083807;27;20041;-75
2022/03/16 01:13:41;;;;;;;19.40;13.23;;;4.70;99.90;;;;;;5105259;27;20016;-76
2022/03/16 01:16:08;;;;;;;21.52;13.30;;;4.70;99.90;;;;;;5084380;27;20031;-75
2022/03/16 01:18:36;;;;;;;22.15;13.98;;;4.60;99.90;;;;;;5084310;27;20379;-75
2022/03/16 01:21:06;;;;;;;24.80;14.17;;;4.70;99.90;;;;;;5099969;27;20024;-75
2022/03/16 01:23:37;;;;;;;20.73;13.67;;;4.70;99.90;;;;;;5062412;28;20026;-75
2022/03/16 01:26:04;;;;;;;22.58;13.63;;;4.60;99.90;;;;;;5082590;27;20023;-75
2022/03/16 01:28:31;;;;;;;21.17;13.93;;;4.60;99.90;;;;;;5084393;28;20030;-75
2022/03/16 01:31:00;;;;;;;19.83;13.37;;;4.60;99.90;;;;;;5067466;27;20027;-75
2022/03/16 01:33:26;;;;;;;23.03;14.67;;;4.60;99.90;;;;;;5083642;27;20027;-75
2022/03/16 01:35:52;;;;;;;24.03;15.97;;;4.60;99.90;;;;;;5071665;27;20020;-75
2022/03/16 01:38:19;;;;;;;24.65;15.52;;;4.60;99.90;;;;;;5084813;27;20012;-75
2022/03/16 01:40:45;;;;;;;25.00;14.83;;;4.60;99.90;;;;;;5084822;27;20004;-75
2022/03/16 01:43:12;;;;;;;23.13;14.57;;;4.70;99.90;;;;;;5052500;27;20016;-75
2022/03/16 01:45:46;;;;;;;21.83;15.10;;;4.60;99.90;;;;;;5049774;27;20042;-75
2022/03/16 01:48:12;;;;;;;22.27;14.50;;;4.60;99.90;;;;;;5081630;27;20454;-75
2022/03/16 01:50:39;;;;;;;21.03;13.67;;;4.60;99.90;;;;;;5082726;28;20039;-75
2022/03/16 01:53:05;;;;;;;22.30;14.63;;;4.50;99.90;;;;;;5035569;27;20050;-75
2022/03/16 01:55:34;;;;;;;22.47;13.47;;;4.50;99.90;;;;;;5067692;27;20021;-75
2022/03/16 01:58:00;;;;;;;20.50;13.07;;;4.50;99.90;;;;;;5065738;28;20026;-75
2022/03/16 02:00:27;;;;;;;22.83;14.87;;;4.40;99.90;;;;;;5076302;28;20367;-76
2022/03/16 02:02:53;;;;;;;23.67;14.67;;;4.40;99.90;;;;;;5067294;27;20020;-75
2022/03/16 02:05:20;;;;;;;23.13;14.93;;;4.40;99.90;;;;;;5082810;28;20028;-75
2022/03/16 02:07:47;;;;;;;22.27;14.20;;;4.40;99.90;;;;;;5052440;27;20032;-75
2022/03/16 02:10:14;;;;;;;23.00;14.23;;;4.40;99.90;;;;;;5099828;27;20413;-75
2022/03/16 02:12:51;;;;;;;21.97;15.03;;;4.40;99.90;;;;;;5066630;27;20048;-75
2022/03/16 02:15:19;;;;;;;24.43;14.63;;;4.40;99.90;;;;;;5081680;27;20019;-75
2022/03/16 02:17:45;;;;;;;22.53;15.37;;;4.30;99.90;;;;;;5101426;27;20034;-75
2022/03/16 02:20:12;;;;;;;22.67;14.07;;;4.30;99.90;;;;;;5100125;27;20022;-75
2022/03/16 02:22:53;;;;;;;20.33;14.03;;;4.30;99.90;;;;;;5063846;28;20047;-75
2022/03/16 02:25:20;;;;;;;21.67;14.17;;;4.40;99.90;;;;;;5099755;27;20035;-75
2022/03/16 02:27:46;;;;;;;24.20;15.45;;;4.30;99.90;;;;;;5063818;27;20028;-75
2022/03/16 02:30:13;;;;;;;21.13;15.03;;;4.30;99.90;;;;;;5063767;27;20490;-75
2022/03/16 02:32:39;;;;;;;23.23;15.40;;;4.30;99.90;;;;;;5060645;28;20036;-75
2022/03/16 02:35:06;;;;;;;22.53;14.87;;;4.40;99.90;;;;;;5097068;27;20028;-75
2022/03/16 02:37:37;;;;;;;22.87;16.00;;;4.30;99.90;;;;;;5044403;28;20027;-75
2022/03/16 02:40:03;;;;;;;24.00;16.80;;;4.40;99.90;;;;;;5076493;27;20398;-75
2022/03/16 02:42:30;;;;;;;23.43;15.90;;;4.40;99.90;;;;;;5099714;27;20032;-75
2022/03/16 02:44:57;;;;;;;22.53;15.10;;;4.40;99.90;;;;;;5079006;27;20126;-75
2022/03/16 02:47:24;;;;;;;28.93;17.53;;;4.40;99.90;;;;;;5084639;28;20020;-75
2022/03/16 02:49:54;;;;;;;26.23;17.10;;;4.40;99.90;;;;;;5079128;27;20039;-75
2022/03/16 02:52:22;;;;;;;26.97;18.60;;;4.40;99.90;;;;;;5100090;27;20039;-75
2022/03/16 02:54:49;;;;;;;32.80;20.20;;;4.40;99.90;;;;;;5098469;27;20030;-75
2022/03/16 02:57:16;;;;;;;29.83;20.38;;;4.40;99.90;;;;;;5083009;27;20023;-76
2022/03/16 02:59:43;;;;;;;32.00;22.50;;;4.50;99.90;;;;;;5044673;27;20023;-75
2022/03/16 03:02:10;;;;;;;35.13;23.98;;;4.50;99.90;;;;;;5102689;27;20024;-75
2022/03/16 03:04:36;;;;;;;26.43;19.07;;;4.50;99.90;;;;;;5080950;27;20024;-76
2022/03/16 03:07:04;;;;;;;34.63;23.33;;;4.50;99.90;;;;;;5084865;27;20464;-79
2022/03/16 03:09:30;;;;;;;34.73;21.83;;;4.50;99.90;;;;;;5097606;27;20684;-78
2022/03/16 03:11:59;;;;;;;31.30;21.37;;;4.50;99.90;;;;;;5101509;27;20028;-79
2022/03/16 03:14:26;;;;;;;44.60;30.30;;;4.50;99.90;;;;;;5100248;27;20016;-79
2022/03/16 03:16:52;;;;;;;36.70;26.00;;;4.50;99.90;;;;;;5065639;28;20020;-79
2022/03/16 03:19:21;;;;;;;36.80;26.70;;;4.50;99.90;;;;;;5080345;27;20020;-75
2022/03/16 03:21:48;;;;;;;36.13;26.53;;;4.50;99.90;;;;;;5076072;28;20024;-75
2022/03/16 03:24:14;;;;;;;43.00;28.33;;;4.50;99.90;;;;;;5080762;27;20015;-75
2022/03/16 03:26:41;;;;;;;29.70;21.27;;;4.50;99.90;;;;;;5081349;28;20023;-75
2022/03/16 03:29:07;;;;;;;32.08;23.35;;;4.50;99.90;;;;;;5097847;27;20487;-75
2022/03/16 03:31:34;;;;;;;30.00;20.13;;;4.50;99.90;;;;;;5079082;28;20031;-75
2022/03/16 03:34:02;;;;;;;33.53;24.27;;;4.50;99.90;;;;;;5098031;27;20478;-75
2022/03/16 03:36:29;;;;;;;40.43;28.20;;;4.50;99.90;;;;;;5079724;28;20012;-75
2022/03/16 03:38:56;;;;;;;53.00;34.00;;;4.50;99.90;;;;;;5079270;28;20599;-75
2022/03/16 03:41:22;;;;;;;35.93;25.10;;;4.50;99.90;;;;;;5093084;28;20030;-75
2022/03/16 03:43:49;;;;;;;39.23;26.50;;;4.60;99.90;;;;;;5098280;28;20363;-75
2022/03/16 03:46:15;;;;;;;33.33;24.00;;;4.60;99.90;;;;;;5078903;28;20035;-75
2022/03/16 03:48:42;;;;;;;36.70;26.03;;;4.60;99.90;;;;;;5080851;28;20022;-75
2022/03/16 03:51:08;;;;;;;37.90;27.10;;;4.70;99.90;;;;;;5096509;28;20525;-75
2022/03/16 03:53:35;;;;;;;40.67;29.83;;;4.70;99.90;;;;;;5050718;28;20406;-75
2022/03/16 03:56:02;;;;;;;42.47;28.70;;;4.70;99.90;;;;;;5097547;28;20024;-75
2022/03/16 03:58:28;;;;;;;48.20;34.53;;;4.70;99.90;;;;;;5059238;28;20018;-75
2022/03/16 04:00:54;;;;;;;41.80;31.10;;;4.70;99.90;;;;;;5060442;28;20028;-75
2022/03/16 04:03:21;;;;;;;39.13;28.10;;;4.70;99.90;;;;;;5093974;28;20027;-76
2022/03/16 04:05:47;;;;;;;43.67;27.87;;;4.80;99.90;;;;;;5096690;28;20029;-76
2022/03/16 04:08:14;;;;;;;35.80;26.23;;;4.70;99.90;;;;;;5062678;28;20039;-75
2022/03/16 04:10:40;;;;;;;47.07;32.17;;;4.70;99.90;;;;;;5077628;28;20470;-75
2022/03/16 04:13:07;;;;;;;43.47;30.13;;;4.70;99.90;;;;;;5080999;28;20046;-75
2022/03/16 04:15:33;;;;;;;55.67;38.40;;;4.70;99.90;;;;;;5097113;28;20012;-75
2022/03/16 04:18:00;;;;;;;59.13;40.53;;;4.70;99.90;;;;;;5081698;28;20031;-75
2022/03/16 04:20:26;;;;;;;49.37;34.53;;;4.70;99.90;;;;;;5047710;28;20036;-75
2022/03/16 04:22:56;;;;;;;45.93;32.17;;;4.70;99.90;;;;;;5063674;28;20853;-76
2022/03/16 04:25:22;;;;;;;45.60;32.90;;;4.80;99.90;;;;;;5063500;28;20046;-76
2022/03/16 04:27:49;;;;;;;53.93;37.00;;;4.70;99.90;;;;;;5078405;28;20031;-76
2022/03/16 04:30:15;;;;;;;45.17;31.97;;;4.70;99.90;;;;;;5075022;28;20378;-76
2022/03/16 04:32:41;;;;;;;56.13;37.10;;;4.80;99.90;;;;;;5100800;28;20031;-76
2022/03/16 04:35:08;;;;;;;52.67;34.53;;;4.80;99.90;;;;;;5100946;27;20020;-76
2022/03/16 04:37:35;;;;;;;50.40;32.57;;;4.80;99.90;;;;;;5097276;27;20016;-76
2022/03/16 04:40:02;;;;;;;54.10;35.93;;;4.80;99.90;;;;;;5065247;27;20027;-76
2022/03/16 04:42:29;;;;;;;45.80;30.60;;;4.80;99.90;;;;;;5049108;27;20031;-76
2022/03/16 04:44:55;;;;;;;48.55;32.28;;;4.80;99.90;;;;;;5082230;28;20023;-76
2022/03/16 04:47:22;;;;;;;42.45;28.80;;;4.80;99.90;;;;;;5080942;27;20031;-76
2022/03/16 04:49:48;;;;;;;46.22;32.10;;;4.80;99.90;;;;;;5079797;27;20062;-76
2022/03/16 04:52:15;;;;;;;49.07;31.43;;;4.80;99.90;;;;;;5082333;28;20035;-76
2022/03/16 04:54:41;;;;;;;38.03;26.20;;;4.80;99.90;;;;;;5080531;27;20042;-76
2022/03/16 04:57:07;;;;;;;42.20;26.20;;;4.80;99.90;;;;;;5079351;28;20482;-75
2022/03/16 04:59:34;;;;;;;48.17;33.60;;;4.70;99.90;;;;;;5080647;28;20044;-76
2022/03/16 05:02:01;;;;;;;39.73;28.23;;;4.70;99.90;;;;;;5064234;27;20027;-76
2022/03/16 05:04:27;;;;;;;41.07;28.47;;;4.60;99.90;;;;;;5103513;27;20024;-76
2022/03/16 05:06:53;;;;;;;41.97;28.67;;;4.60;99.90;;;;;;5099920;27;20458;-75
2022/03/16 05:09:20;;;;;;;42.72;28.00;;;4.60;99.90;;;;;;5064451;28;20043;-76
2022/03/16 05:11:46;;;;;;;37.03;26.17;;;4.60;99.90;;;;;;5099544;27;23530;-75
2022/03/16 05:14:13;;;;;;;32.90;23.57;;;4.60;99.90;;;;;;5081715;27;20032;-76
2022/03/16 05:16:39;;;;;;;35.93;22.97;;;4.60;99.90;;;;;;5081255;27;20479;-75
2022/03/16 05:19:06;;;;;;;44.70;30.23;;;4.50;99.90;;;;;;5079373;27;20036;-75
2022/03/16 05:21:32;;;;;;;57.00;37.07;;;4.50;99.90;;;;;;5095924;27;20031;-75
2022/03/16 05:23:59;;;;;;;56.93;38.13;;;4.50;99.90;;;;;;5047369;27;20375;-75
2022/03/16 05:26:25;;;;;;;52.13;37.07;;;4.50;99.90;;;;;;5077591;28;20020;-75
2022/03/16 05:28:52;;;;;;;55.13;38.07;;;4.60;99.90;;;;;;5097706;27;20030;-75
2022/03/16 05:31:20;;;;;;;56.13;35.90;;;4.60;99.90;;;;;;5062169;28;20020;-75
2022/03/16 05:33:47;;;;;;;53.27;34.73;;;4.60;99.90;;;;;;5080360;28;20024;-75
2022/03/16 05:36:14;;;;;;;47.30;34.30;;;4.60;99.90;;;;;;5097583;27;20027;-79
2022/03/16 05:38:40;;;;;;;48.90;34.57;;;4.60;99.90;;;;;;5100597;27;20064;-78
2022/03/16 05:41:07;;;;;;;57.90;36.60;;;4.60;99.90;;;;;;5099519;27;20035;-79
2022/03/16 05:43:33;;;;;;;50.23;33.90;;;4.60;99.90;;;;;;5061946;27;20055;-75
2022/03/16 05:46:01;;;;;;;54.03;38.53;;;4.60;99.90;;;;;;5080010;27;20344;-76
2022/03/16 05:48:27;;;;;;;54.07;37.77;;;4.60;99.90;;;;;;5068350;28;20380;-77
2022/03/16 05:50:54;;;;;;;52.53;35.27;;;4.60;99.90;;;;;;5077973;27;20026;-74
2022/03/16 05:53:20;;;;;;;68.30;43.83;;;4.50;99.90;;;;;;5016796;27;20051;-75
2022/03/16 05:55:47;;;;;;;55.37;38.27;;;4.60;99.90;;;;;;5080159;27;20121;-75
2022/03/16 05:58:13;;;;;;;63.57;42.13;;;4.60;99.90;;;;;;5097501;27;20031;-76
2022/03/16 06:00:42;;;;;;;56.07;37.50;;;4.60;99.90;;;;;;5095169;27;20796;-75
2022/03/16 06:03:11;;;;;;;55.75;35.05;;;4.60;99.90;;;;;;5095700;27;20027;-75
2022/03/16 06:05:37;;;;;;;60.50;40.60;;;4.50;99.90;;;;;;5078648;27;20015;-75
2022/03/16 06:08:04;;;;;;;77.53;49.60;;;4.50;99.90;;;;;;5097936;27;20895;-75
2022/03/16 06:10:30;;;;;;;62.83;43.30;;;4.60;99.90;;;;;;5094340;27;20459;-76
2022/03/16 06:12:59;;;;;;;56.43;35.50;;;4.60;99.90;;;;;;5080465;27;20513;-76
2022/03/16 06:15:27;;;;;;;51.57;36.93;;;4.60;99.90;;;;;;5096536;27;20030;-77
2022/03/16 06:18:00;;;;;;;81.80;51.87;;;4.60;99.90;;;;;;5080413;27;20019;-77
2022/03/16 06:20:28;;;;;;;;;;;4.60;99.90;;;;;;5073358;27;20596;-76
2022/03/16 06:22:54;;;;;;;67.13;42.07;;;4.60;99.90;;;;;;5097924;27;19911;-76
2022/03/16 06:25:24;;;;;;;64.30;43.10;;;4.60;99.90;;;;;;5064960;28;20023;-76
2022/03/16 06:27:51;;;;;;;62.60;40.07;;;4.60;99.90;;;;;;5078437;27;20482;-76
2022/03/16 06:30:18;;;;;;;70.53;44.40;;;4.60;99.90;;;;;;5076757;28;20024;-76
2022/03/16 06:32:45;;;;;;;58.83;38.97;;;4.60;99.90;;;;;;5099089;27;20405;-76
2022/03/16 06:35:12;;;;;;;63.60;40.90;;;4.60;99.90;;;;;;5102433;27;20034;-76
2022/03/16 06:37:38;;;;;;;61.53;42.17;;;4.60;99.90;;;;;;5099164;27;20398;-76
2022/03/16 06:40:06;;;;;;;58.73;39.47;;;4.60;99.90;;;;;;5065958;27;20034;-76
2022/03/16 06:42:32;;;;;;;64.53;41.75;;;4.70;99.90;;;;;;5077473;27;20486;-76
2022/03/16 06:44:59;;;;;;;59.30;38.73;;;4.70;99.90;;;;;;5078347;28;20401;-76
2022/03/16 06:47:25;;;;;;;62.67;40.37;;;4.80;99.90;;;;;;5080752;28;20015;-75
2022/03/16 06:49:51;;;;;;;61.83;41.97;;;4.90;99.90;;;;;;5075646;27;20116;-75
2022/03/16 06:52:18;;;;;;;55.50;38.67;;;5.10;99.90;;;;;;5061218;28;20036;-78
2022/03/16 06:54:45;;;;;;;57.50;39.97;;;5.20;99.90;;;;;;5077901;28;20030;-77
2022/03/16 06:57:11;;;;;;;53.17;35.87;;;5.30;99.90;;;;;;5077296;28;20279;-75
2022/03/16 06:59:37;;;;;;;54.83;37.13;;;5.40;99.90;;;;;;5093591;27;20028;-76
2022/03/16 07:02:04;;;;;;;50.73;34.93;;;5.40;99.90;;;;;;5064572;27;20490;-76
2022/03/16 07:04:31;;;;;;;52.75;36.55;;;5.40;99.90;;;;;;5059738;27;20371;-75
2022/03/16 07:06:57;;;;;;;49.77;35.30;;;5.60;99.90;;;;;;5096060;27;20023;-76
2022/03/16 07:09:23;;;;;;;47.63;32.53;;;5.70;99.90;;;;;;5061452;27;20035;-76
2022/03/16 07:11:50;;;;;;;47.28;32.53;;;5.80;99.90;;;;;;5067674;28;20356;-76
2022/03/16 07:14:31;;;;;;;51.15;33.13;;;5.90;99.90;;;;;;5077254;28;20038;-76
2022/03/16 07:17:01;;;;;;;50.35;33.63;;;5.90;99.90;;;;;;5081062;28;20031;-76
2022/03/16 07:19:28;;;;;;;43.75;31.13;;;6.10;99.90;;;;;;5081093;27;20347;-76
2022/03/16 07:21:59;;;;;;;47.50;33.17;;;6.10;99.90;;;;;;5078573;27;20020;-76
2022/03/16 07:24:25;;;;;;;50.22;33.45;;;6.10;99.90;;;;;;5094725;27;20035;-76
2022/03/16 07:26:55;;;;;;;42.92;30.50;;;6.10;99.90;;;;;;5095715;27;20012;-76
2022/03/16 07:29:22;;;;;;;41.97;29.83;;;6.20;99.90;;;;;;5093248;27;20012;-76
2022/03/16 07:31:49;;;;;;;46.08;32.90;;;6.30;99.90;;;;;;5092161;28;20039;-76
2022/03/16 07:34:16;;;;;;;39.85;30.30;;;6.50;99.90;;;;;;5092633;27;20035;-76
2022/03/16 07:36:42;;;;;;;42.30;28.75;;;6.60;99.90;;;;;;5080163;28;20031;-77
2022/03/16 07:39:11;;;;;;;41.33;30.77;;;6.70;99.90;;;;;;5096277;27;20030;-76
2022/03/16 07:41:38;;;;;;;40.78;30.08;;;6.80;99.90;;;;;;5076300;28;20031;-76
2022/03/16 07:44:05;;;;;;;39.40;30.05;;;6.90;99.90;;;;;;5064163;28;20027;-76
2022/03/16 07:46:32;;;;;;;39.63;29.67;;;7.00;99.90;;;;;;5081897;28;20031;-76
2022/03/16 07:48:58;;;;;;;38.50;28.58;;;7.10;99.90;;;;;;5061199;28;20405;-77
2022/03/16 07:51:24;;;;;;;38.92;29.05;;;7.20;99.90;;;;;;5096767;28;20028;-77
2022/03/16 07:53:51;;;;;;;43.00;28.70;;;7.20;99.90;;;;;;5075436;28;20036;-77
2022/03/16 07:56:17;;;;;;;36.65;27.52;;;7.30;99.90;;;;;;5075567;28;20031;-76
2022/03/16 07:58:45;;;;;;;35.17;26.13;;;7.40;99.90;;;;;;5093880;28;20470;-76
2022/03/16 08:01:12;;;;;;;35.65;24.88;;;7.50;99.90;;;;;;5091433;28;20028;-77
2022/03/16 08:03:38;;;;;;;33.22;24.52;;;7.70;99.90;;;;;;5079359;28;20138;-75
2022/03/16 08:06:04;;;;;;;32.95;24.83;;;7.80;99.90;;;;;;5093985;28;20031;-76
2022/03/16 08:08:31;;;;;;;30.85;23.05;;;7.90;99.90;;;;;;5073315;28;20079;-76
2022/03/16 08:10:59;;;;;;;32.63;23.65;;;8.00;99.90;;;;;;5077763;27;20023;-75
2022/03/16 08:13:25;;;;;;;29.60;22.38;;;8.00;99.90;;;;;;5081689;27;20031;-75
2022/03/16 08:15:51;;;;;;;30.05;22.33;;;8.10;99.90;;;;;;5102336;27;20020;-76
2022/03/16 08:18:18;;;;;;;29.33;21.45;;;8.20;99.90;;;;;;5097230;27;20038;-76
2022/03/16 08:20:44;;;;;;;31.20;21.48;;;8.30;99.90;;;;;;5097728;27;20019;-76
2022/03/16 08:23:11;;;;;;;31.67;22.13;;;8.40;99.90;;;;;;5096797;27;20345;-76
2022/03/16 08:25:37;;;;;;;28.20;19.65;;;8.60;99.90;;;;;;5081211;27;20020;-76
2022/03/16 08:28:03;;;;;;;27.55;19.85;;;8.70;99.90;;;;;;5097055;27;20015;-76
2022/03/16 08:30:30;;;;;;;26.20;19.48;;;8.90;99.90;;;;;;5097830;27;20028;-76
2022/03/16 08:32:56;;;;;;;27.85;19.17;;;9.00;99.90;;;;;;5080004;28;20027;-76
2022/03/16 08:35:23;;;;;;;23.02;18.50;;;9.10;99.90;;;;;;5078229;27;20032;-76
2022/03/16 08:37:49;;;;;;;25.38;17.63;;;9.30;99.90;;;;;;5061294;28;20016;-76
2022/03/16 08:40:16;;;;;;;22.40;16.40;;;9.40;99.90;;;;;;5063228;27;20035;-77
2022/03/16 08:42:43;;;;;;;21.83;16.63;;;9.70;99.90;;;;;;5063543;27;20020;-76
2022/03/16 08:45:10;;;;;;;21.08;16.00;;;9.80;99.90;;;;;;5060052;28;20039;-76
2022/03/16 08:47:38;;;;;;;22.08;16.52;;;10.00;99.90;;;;;;5084914;28;20019;-77
2022/03/16 08:50:06;;;;;;;22.38;15.90;;;10.00;99.90;;;;;;5061022;27;20898;-76
2022/03/16 08:52:33;;;;;;;20.23;15.18;;;10.00;99.90;;;;;;5097457;27;20027;-76
2022/03/16 08:54:59;;;;;;;18.23;13.75;;;9.90;99.90;;;;;;5099999;27;20028;-76
2022/03/16 08:57:26;;;;;;;21.65;14.35;;;9.90;99.90;;;;;;5100432;27;20403;-76
2022/03/16 08:59:53;;;;;;;19.35;14.13;;;9.90;99.90;;;;;;5076742;27;20023;-76
2022/03/16 09:02:19;;;;;;;16.63;13.38;;;10.00;99.90;;;;;;5065396;28;20028;-76
2022/03/16 09:04:45;;;;;;;18.08;13.70;;;10.10;99.90;;;;;;5080359;28;20035;-76
2022/03/16 09:07:12;;;;;;;17.90;13.93;;;10.20;99.90;;;;;;5099325;27;20030;-76
2022/03/16 09:09:39;;;;;;;17.95;12.27;;;10.30;99.90;;;;;;5095459;27;20655;-77
2022/03/16 09:12:08;;;;;;;15.93;12.57;;;10.40;99.90;;;;;;5063633;27;20027;-76
2022/03/16 09:14:34;;;;;;;18.60;12.55;;;10.50;99.90;;;;;;5079150;27;20036;-76
2022/03/16 09:17:01;;;;;;;16.00;10.93;;;10.60;99.90;;;;;;5077524;27;20047;-76
2022/03/16 09:19:27;;;;;;;15.48;11.65;;;10.70;99.90;;;;;;5095018;27;20012;-76
2022/03/16 09:21:53;;;;;;;14.85;10.98;;;10.80;99.90;;;;;;5098324;27;20359;-77
2022/03/16 09:24:21;;;;;;;19.73;10.82;;;10.90;99.90;;;;;;5083166;27;20049;-76
2022/03/16 09:26:47;;;;;;;15.15;10.48;;;11.00;99.90;;;;;;5062669;27;20033;-76
2022/03/16 09:29:13;;;;;;;15.55;11.05;;;11.10;99.90;;;;;;5097418;27;20502;-76
2022/03/16 09:31:42;;;;;;;16.77;11.43;;;11.10;99.90;;;;;;5096288;27;20414;-77
2022/03/16 09:34:09;;;;;;;14.52;10.25;;;11.10;99.90;;;;;;5078359;27;20032;-77
2022/03/16 09:36:37;;;;;;;15.93;11.55;;;11.10;99.90;;;;;;5064946;27;20035;-77
2022/03/16 09:39:05;;;;;;;16.30;11.18;;;11.20;99.90;;;;;;5082939;27;20372;-77
2022/03/16 09:41:31;;;;;;;13.75;10.85;;;11.20;99.90;;;;;;5077156;28;20443;-77
2022/03/16 09:43:58;;;;;;;14.65;11.25;;;11.30;99.90;;;;;;5081221;27;20028;-76
2022/03/16 09:46:32;;;;;;;19.98;10.20;;;11.50;99.90;;;;;;5098545;27;20028;-76
2022/03/16 09:48:59;;;;;;;12.98;10.30;;;11.60;99.90;;;;;;5095335;27;20024;-76
2022/03/16 09:51:26;;;;;;;19.05;11.43;;;11.60;99.90;;;;;;5097470;27;20037;-76
2022/03/16 09:53:53;;;;;;;18.45;12.18;;;11.80;99.90;;;;;;5095325;27;20493;-76
2022/03/16 09:56:20;;;;;;;14.73;10.40;;;11.80;99.90;;;;;;5099579;27;21456;-77
2022/03/16 09:58:47;;;;;;;14.73;11.75;;;11.80;99.90;;;;;;5051629;27;20028;-76
2022/03/16 10:01:13;;;;;;;11.60;10.18;;;11.90;99.90;;;;;;5093612;27;20008;-76
2022/03/16 10:03:40;;;;;;;12.63;10.70;;;12.00;99.90;;;;;;5079963;27;20032;-77
2022/03/16 10:06:07;;;;;;;15.10;11.52;;;12.10;99.90;;;;;;5099183;27;20031;-76
2022/03/16 10:08:35;;;;;;;14.93;10.57;;;12.20;99.90;;;;;;5101955;27;20478;-76
2022/03/16 10:14:14;;;;;;;14.48;11.10;;;12.30;99.90;;;;;;5076040;28;20051;-76
2022/03/16 10:19:50;;;;;;;17.27;11.02;;;12.40;99.90;;;;;;5094909;27;20023;-76
2022/03/16 10:22:27;;;;;;;13.73;10.23;;;12.70;99.90;;;;;;5097883;27;20027;-77
2022/03/16 10:25:02;;;;;;;13.48;9.65;;;12.80;99.90;;;;;;5062916;27;20475;-77
2022/03/16 10:27:30;;;;;;;14.70;10.95;;;13.00;99.90;;;;;;5064666;28;20024;-77
2022/03/16 10:29:57;;;;;;;12.52;11.00;;;13.10;99.90;;;;;;5096832;27;20425;-78
2022/03/16 10:32:24;;;;;;;15.63;11.38;;;13.20;99.90;;;;;;5096734;27;20491;-77
2022/03/16 10:34:53;;;;;;;14.52;10.73;;;13.50;99.90;;;;;;5097054;27;20782;-78
2022/03/16 10:37:22;;;;;;;14.88;10.98;;;13.70;99.90;;;;;;5077485;27;20044;-77
2022/03/16 10:39:50;;;;;;;13.32;10.65;;;13.90;99.90;;;;;;5075883;27;20493;-77
2022/03/16 10:48:18;;;;;;;12.18;10.30;;;14.50;99.60;;;;;;5099462;27;20031;-78
2022/03/16 10:50:45;;;;;;;15.98;11.13;;;14.80;99.70;;;;;;5099261;27;20023;-78
2022/03/16 10:53:16;;;;;;;11.50;10.30;;;15.10;98.80;;;;;;5097688;27;20550;-77
2022/03/16 10:55:45;;;;;;;13.77;9.75;;;15.30;97.30;;;;;;5095872;28;20011;-77
2022/03/16 10:58:12;;;;;;;12.30;10.10;;;15.50;97.30;;;;;;5096070;27;20023;-78
2022/03/16 11:00:40;;;;;;;13.10;11.02;;;15.70;96.70;;;;;;5094306;27;20020;-78
2022/03/16 11:03:15;;;;;;;13.20;10.13;;;15.90;95.40;;;;;;5070732;27;20506;-78
2022/03/16 11:05:42;;;;;;;12.85;11.23;;;16.20;95.00;;;;;;5081143;28;20039;-79
2022/03/16 11:08:09;;;;;;;13.32;9.75;;;16.40;93.90;;;;;;5098055;27;20042;-78
2022/03/16 11:10:43;;;;;;;11.18;8.65;;;16.50;93.40;;;;;;5079399;27;20032;-80
2022/03/16 11:13:32;;;;;;;10.93;9.60;;;16.80;93.60;;;;;;5097713;27;20016;-78
2022/03/16 11:16:00;;;;;;;10.20;9.02;;;17.10;92.10;;;;;;5097368;27;20038;-78
2022/03/16 11:18:27;;;;;;;12.40;10.57;;;17.30;90.70;;;;;;5081006;28;20034;-79
2022/03/16 11:21:15;;;;;;;10.32;9.07;;;17.30;88.30;;;;;;5078101;28;20016;-78
2022/03/16 11:27:10;;;;;;;10.95;9.52;;;17.40;88.00;;;;;;5095230;27;20024;-78
2022/03/16 11:29:52;;;;;;;9.40;8.50;;;17.70;87.10;;;;;;5058164;27;20027;-78
2022/03/16 11:32:20;;;;;;;8.20;7.38;;;18.00;84.00;;;;;;5096931;27;20012;-78
2022/03/16 11:34:48;;;;;;;9.35;8.27;;;18.20;83.20;;;;;;5096801;28;20039;-78
2022/03/16 11:37:15;;;;;;;10.65;8.55;;;18.40;80.10;;;;;;5065053;28;20051;-78
2022/03/16 11:39:46;;;;;;;8.75;7.85;;;18.70;78.50;;;;;;5065398;28;20024;-78
2022/03/16 11:42:18;;;;;;;8.60;7.63;;;18.80;77.00;;;;;;5059995;28;20027;-77
2022/03/16 11:44:45;;;;;;;9.32;8.25;;;18.90;75.90;;;;;;5095660;28;20031;-78
2022/03/16 11:47:16;;;;;;;12.20;9.48;;;19.00;74.80;;;;;;5079882;28;20603;-78
2022/03/16 11:50:03;;;;;;;12.38;8.43;;;18.90;73.50;;;;;;5078876;28;20032;-75
2022/03/16 11:53:00;;;;;;;10.00;8.55;;;18.90;73.80;;;;;;5097534;28;20481;-78
2022/03/16 11:55:47;;;;;;;11.13;8.75;;;18.70;73.30;;;;;;5076985;28;20336;-78
2022/03/16 11:58:30;;;;;;;9.13;8.23;;;18.70;72.00;;;;;;5101088;28;20397;-77
2022/03/16 12:01:31;;;;;;;10.38;8.88;;;18.80;71.50;;;;;;5075098;28;20027;-78
2022/03/16 12:04:23;;;;;;;8.77;7.43;;;18.80;70.50;;;;;;5079600;28;20021;-78
2022/03/16 12:07:12;;;;;;;9.50;8.57;;;18.80;70.50;;;;;;5058219;28;20031;-78
2022/03/16 12:09:46;;;;;;;8.13;7.22;;;18.60;70.00;;;;;;5075639;28;20371;-77
2022/03/16 12:15:17;;;;;;;8.90;8.00;;;18.30;69.60;;;;;;5098356;28;20021;-78
2022/03/16 12:17:55;;;;;;;9.73;8.63;;;18.40;69.30;;;;;;5096595;28;20478;-78
2022/03/16 12:20:44;;;;;;;9.70;7.63;;;18.80;68.80;;;;;;5077350;28;20232;-78
2022/03/16 12:23:16;;;;;;;9.07;8.18;;;19.10;68.40;;;;;;5098145;28;20038;-78
2022/03/16 12:25:46;;;;;;;10.00;8.13;;;19.20;67.40;;;;;;5076939;28;21973;-77
2022/03/16 12:31:15;;;;;;;7.72;6.78;;;19.10;68.00;;;;;;5092671;28;20020;-78
2022/03/16 12:33:45;;;;;;;10.93;8.57;;;19.10;67.10;;;;;;5041571;28;20368;-78
2022/03/16 12:36:18;;;;;;;10.00;8.85;;;19.10;66.10;;;;;;5058364;28;20023;-78
2022/03/16 12:38:47;;;;;;;8.60;7.45;;;19.00;66.20;;;;;;5045759;28;20035;-78
2022/03/16 12:44:03;;;;;;;6.93;6.13;;;18.60;67.30;;;;;;5095199;28;20027;-78
2022/03/16 12:46:33;;;;;;;8.38;7.57;;;18.80;67.80;;;;;;5077817;28;20495;-78
2022/03/16 12:49:05;;;;;;;8.40;7.13;;;19.10;66.40;;;;;;5098902;28;20023;-77
2022/03/16 12:51:49;;;;;;;7.85;6.90;;;18.90;66.10;;;;;;5075587;28;20026;-78
2022/03/16 12:54:20;;;;;;;9.55;8.40;;;18.40;67.20;;;;;;5082464;27;20024;-77
2022/03/16 12:56:51;;;;;;;12.57;8.02;;;18.10;67.60;;;;;;5083553;27;20024;-79
2022/03/16 12:59:26;;;;;;;11.48;7.07;;;17.80;68.40;;;;;;5099299;27;20028;-78
2022/03/16 13:01:55;;;;;;;9.00;7.13;;;17.50;69.50;;;;;;5100105;27;20015;-78
2022/03/16 13:04:26;;;;;;;10.52;9.35;;;17.30;70.00;;;;;;5084029;27;20039;-78
2022/03/16 13:06:54;;;;;;;8.43;7.57;;;17.10;70.30;;;;;;5101871;27;20023;-78